createdAt,value
2023-05-06T00:00:25.592Z,89.0254
2023-05-06T00:01:26.583Z,88.7432
2023-05-06T00:02:27.590Z,88.6791
2023-05-06T00:03:28.958Z,88.8184
2023-05-06T00:04:29.219Z,88.9066
2023-05-06T00:05:29.371Z,89.0995
2023-05-06T00:06:29.910Z,88.9726
2023-05-06T00:07:30.720Z,88.9620
2023-05-06T00:08:31.481Z,88.6574
2023-05-06T00:09:31.863Z,88.6861
2023-05-06T00:10:32.518Z,88.7125
2023-05-06T00:11:33.122Z,88.6225
2023-05-06T00:12:33.866Z,88.8909
2023-05-06T00:13:34.571Z,88.9790
2023-05-06T00:14:35.376Z,88.9950
2023-05-06T00:15:36.267Z,88.9625
2023-05-06T00:16:37.231Z,89.1749
2023-05-06T00:17:38.488Z,89.1465
2023-05-06T00:18:39.270Z,89.1116
2023-05-06T00:19:40.126Z,89.0280
2023-05-06T00:20:40.743Z,89.0020
2023-05-06T00:21:41.130Z,88.6975
2023-05-06T00:22:41.734Z,88.5797
2023-05-06T00:23:42.541Z,88.5860
2023-05-06T00:24:43.543Z,88.6894
2023-05-06T00:25:43.759Z,88.7256
2023-05-06T00:26:44.115Z,88.8217
2023-05-06T00:27:45.115Z,88.7988
2023-05-06T00:28:45.410Z,88.6837
2023-05-06T00:29:45.935Z,88.5012
2023-05-06T00:30:46.742Z,88.3652
2023-05-06T00:31:47.386Z,88.2917
2023-05-06T00:32:47.798Z,87.9495
2023-05-06T00:33:48.444Z,87.8787
2023-05-06T00:34:49.000Z,87.4799
2023-05-06T00:35:49.677Z,87.3980
2023-05-06T00:36:50.270Z,87.3289
2023-05-06T00:37:51.198Z,87.2660
2023-05-06T00:38:51.613Z,87.3723
2023-05-06T00:39:52.370Z,87.3745
2023-05-06T00:40:53.073Z,87.7317
2023-05-06T00:41:53.780Z,87.6371
2023-05-06T00:42:54.636Z,87.5718
2023-05-06T00:43:55.063Z,87.5976
2023-05-06T00:44:55.596Z,87.6420
2023-05-06T00:45:55.606Z,87.7998
2023-05-06T00:46:56.247Z,88.0475
2023-05-06T00:47:56.961Z,88.1085
2023-05-06T00:48:57.496Z,88.0368
2023-05-06T00:49:58.040Z,88.3476
2023-05-06T00:50:58.575Z,88.3269
2023-05-06T00:51:59.039Z,88.4598
2023-05-06T00:52:59.786Z,88.3014
2023-05-06T00:54:00.470Z,88.1840
2023-05-06T00:55:01.079Z,88.0597
2023-05-06T00:56:01.762Z,87.7665
2023-05-06T00:57:02.458Z,87.8848
2023-05-06T00:58:03.441Z,87.9505
2023-05-06T00:59:03.956Z,87.9273
2023-05-06T01:00:04.669Z,87.8012
2023-05-06T01:01:05.726Z,87.8452
2023-05-06T01:02:06.675Z,87.9004
2023-05-06T01:03:07.748Z,87.8966
2023-05-06T01:04:08.398Z,88.3742
2023-05-06T01:05:09.263Z,88.2275
2023-05-06T01:06:09.850Z,88.3829
2023-05-06T01:07:10.405Z,88.3124
2023-05-06T01:08:11.178Z,88.4753
2023-05-06T01:09:12.046Z,88.6307
2023-05-06T01:10:12.739Z,88.6260
2023-05-06T01:11:15.625Z,88.9049
2023-05-06T01:12:13.989Z,89.1526
2023-05-06T01:13:15.184Z,89.2786
2023-05-06T01:14:16.073Z,89.2787
2023-05-06T01:15:16.251Z,89.3018
2023-05-06T01:16:17.350Z,89.1428
2023-05-06T01:17:18.461Z,89.1905
2023-05-06T01:18:18.709Z,89.1052
2023-05-06T01:19:19.406Z,89.0531
2023-05-06T01:20:20.244Z,89.0638
2023-05-06T01:21:20.965Z,89.1101
2023-05-06T01:22:21.835Z,89.1473
2023-05-06T01:23:22.586Z,88.8638
2023-05-06T01:24:23.476Z,88.7064
2023-05-06T01:25:23.790Z,88.5215
2023-05-06T01:26:24.618Z,88.2570
2023-05-06T01:27:25.569Z,88.2465
2023-05-06T01:28:26.496Z,88.3013
2023-05-06T01:29:27.354Z,88.5773
2023-05-06T01:30:28.502Z,88.6264
2023-05-06T01:31:29.407Z,88.6819
2023-05-06T01:32:30.480Z,88.6464
2023-05-06T01:33:31.568Z,88.7382
2023-05-06T01:34:32.508Z,88.8712
2023-05-06T01:35:32.636Z,88.9740
2023-05-06T01:36:33.360Z,89.2079
2023-05-06T01:37:34.511Z,89.0505
2023-05-06T01:38:35.238Z,89.0444
2023-05-06T01:39:36.063Z,89.1024
2023-05-06T01:40:36.973Z,88.9811
2023-05-06T01:41:37.616Z,89.0002
2023-05-06T01:42:38.564Z,89.0328
2023-05-06T01:43:39.236Z,89.3048
2023-05-06T01:44:40.224Z,89.4845
2023-05-06T01:45:41.110Z,89.5467
2023-05-06T01:46:42.215Z,89.6301
2023-05-06T01:47:43.469Z,89.7568
2023-05-06T01:48:44.335Z,89.7139
2023-05-06T01:49:45.271Z,89.7876
2023-05-06T01:50:46.287Z,89.9244
2023-05-06T01:51:47.385Z,90.1922
2023-05-06T01:52:48.280Z,90.4713
2023-05-06T01:53:49.059Z,90.1447
2023-05-06T01:54:50.000Z,90.1524
2023-05-06T01:55:50.937Z,90.2535
2023-05-06T01:56:51.763Z,90.3082
2023-05-06T01:57:52.687Z,90.2761
2023-05-06T01:58:53.383Z,90.2879
2023-05-06T01:59:54.248Z,90.1361
2023-05-06T02:00:55.128Z,90.1380
2023-05-06T02:01:56.062Z,90.1616
2023-05-06T02:02:56.979Z,90.1760
2023-05-06T02:03:57.567Z,90.4843
2023-05-06T02:04:58.783Z,90.4027
2023-05-06T02:05:59.482Z,90.3521
2023-05-06T02:07:00.312Z,90.5008
2023-05-06T02:08:01.240Z,90.5023
2023-05-06T02:09:02.051Z,90.3268
2023-05-06T02:10:02.971Z,90.3072
2023-05-06T02:11:03.629Z,90.3339
2023-05-06T02:12:04.455Z,90.2973
2023-05-06T02:13:05.419Z,90.3319
2023-05-06T02:14:06.288Z,90.2817
2023-05-06T02:15:07.322Z,90.3658
2023-05-06T02:16:08.423Z,90.3037
2023-05-06T02:17:09.677Z,90.4254
2023-05-06T02:18:10.807Z,90.5558
2023-05-06T02:19:11.513Z,90.4710
2023-05-06T02:20:12.407Z,90.4663
2023-05-06T02:21:13.119Z,90.4812
2023-05-06T02:22:13.953Z,90.7203
2023-05-06T02:23:14.624Z,90.8813
2023-05-06T02:24:15.624Z,90.8763
2023-05-06T02:25:16.508Z,90.9961
2023-05-06T02:26:17.322Z,90.7414
2023-05-06T02:27:18.317Z,90.7339
2023-05-06T02:28:19.258Z,90.8572
2023-05-06T02:29:20.177Z,90.9653
2023-05-06T02:30:21.007Z,90.8051
2023-05-06T02:31:21.890Z,90.7767
2023-05-06T02:32:21.990Z,90.7724
2023-05-06T02:33:22.750Z,90.8399
2023-05-06T02:34:23.437Z,90.8434
2023-05-06T02:35:24.045Z,90.9477
2023-05-06T02:36:24.836Z,90.8973
2023-05-06T02:37:25.291Z,90.8885
2023-05-06T02:38:26.017Z,90.9396
2023-05-06T02:39:26.511Z,90.9517
2023-05-06T02:40:27.222Z,90.8141
2023-05-06T02:41:28.130Z,90.7382
2023-05-06T02:42:29.077Z,90.6671
2023-05-06T02:43:30.275Z,90.6561
2023-05-06T02:44:30.384Z,90.6905
2023-05-06T02:45:31.350Z,90.7457
2023-05-06T02:46:32.100Z,90.6013
2023-05-06T02:47:33.041Z,90.6308
2023-05-06T02:48:33.955Z,90.7248
2023-05-06T02:49:34.878Z,90.7451
2023-05-06T02:50:35.809Z,90.7697
2023-05-06T02:51:36.570Z,90.8409
2023-05-06T02:52:37.494Z,90.8982
2023-05-06T02:53:38.224Z,90.8024
2023-05-06T02:54:39.105Z,90.9128
2023-05-06T02:55:40.048Z,90.9474
2023-05-06T02:56:40.764Z,90.8754
2023-05-06T02:57:41.716Z,90.7878
2023-05-06T02:58:42.437Z,90.8474
2023-05-06T02:59:43.395Z,90.7381
2023-05-06T03:00:44.387Z,90.8620
2023-05-06T03:01:45.381Z,90.8541
2023-05-06T03:02:46.322Z,90.8869
2023-05-06T03:03:47.160Z,90.8818
2023-05-06T03:04:48.257Z,90.9140
2023-05-06T03:05:49.364Z,90.9674
2023-05-06T03:06:50.110Z,90.9682
2023-05-06T03:07:51.031Z,90.9622
2023-05-06T03:08:51.802Z,90.9191
2023-05-06T03:09:52.685Z,90.9020
2023-05-06T03:10:53.473Z,90.9481
2023-05-06T03:11:54.436Z,91.0664
2023-05-06T03:12:55.363Z,91.0868
2023-05-06T03:13:56.384Z,91.0549
2023-05-06T03:14:57.459Z,91.1882
2023-05-06T03:15:58.261Z,91.1809
2023-05-06T03:16:59.368Z,91.2472
2023-05-06T03:17:59.705Z,91.2946
2023-05-06T03:19:00.675Z,91.2391
2023-05-06T03:20:01.729Z,91.3014
2023-05-06T03:21:02.527Z,91.1415
2023-05-06T03:22:03.806Z,91.3715
2023-05-06T03:23:04.674Z,91.4897
2023-05-06T03:24:05.577Z,91.5433
2023-05-06T03:25:06.512Z,91.5258
2023-05-06T03:26:06.598Z,91.4517
2023-05-06T03:27:07.640Z,91.2941
2023-05-06T03:28:08.607Z,91.2165
2023-05-06T03:29:09.428Z,91.2408
2023-05-06T03:30:10.517Z,91.2241
2023-05-06T03:31:11.382Z,91.2378
2023-05-06T03:32:11.536Z,91.2957
2023-05-06T03:33:12.871Z,91.3943
2023-05-06T03:34:13.741Z,91.4666
2023-05-06T03:35:14.475Z,91.4499
2023-05-06T03:36:15.270Z,91.6711
2023-05-06T03:37:16.303Z,91.8463
2023-05-06T03:38:17.196Z,92.0293
2023-05-06T03:39:18.294Z,92.1512
2023-05-06T03:40:19.264Z,92.2812
2023-05-06T03:41:19.993Z,92.5743
2023-05-06T03:42:20.724Z,92.6629
2023-05-06T03:43:21.470Z,92.9725
2023-05-06T03:44:22.461Z,93.0262
2023-05-06T03:45:23.383Z,93.0179
2023-05-06T03:46:24.390Z,93.1849
2023-05-06T03:47:25.657Z,93.1892
2023-05-06T03:48:26.759Z,93.3595
2023-05-06T03:49:27.899Z,93.5318
2023-05-06T03:50:28.978Z,93.6063
2023-05-06T03:51:29.987Z,93.7700
2023-05-06T03:52:31.021Z,93.6957
2023-05-06T03:53:31.906Z,93.6272
2023-05-06T03:54:32.883Z,93.4907
2023-05-06T03:55:33.189Z,93.3480
2023-05-06T03:56:34.016Z,93.4739
2023-05-06T03:57:35.296Z,93.5165
2023-05-06T03:58:36.338Z,93.6503
2023-05-06T03:59:37.239Z,93.8073
2023-05-06T04:00:38.355Z,93.8034
2023-05-06T04:01:39.299Z,93.7893
2023-05-06T04:02:39.653Z,93.8609
2023-05-06T04:03:40.015Z,93.7990
2023-05-06T04:04:39.976Z,93.7037
2023-05-06T04:05:41.009Z,93.7153
2023-05-06T04:06:41.947Z,93.6884
2023-05-06T04:07:42.875Z,93.6343
2023-05-06T04:08:43.744Z,93.6970
2023-05-06T04:09:44.738Z,93.6871
2023-05-06T04:10:45.857Z,93.6235
2023-05-06T04:11:45.845Z,93.7623
2023-05-06T04:12:46.881Z,93.6375
2023-05-06T04:13:46.911Z,93.6421
2023-05-06T04:14:47.922Z,93.5771
2023-05-06T04:15:48.723Z,93.5666
2023-05-06T04:16:49.780Z,93.5152
2023-05-06T04:17:50.636Z,93.5171
2023-05-06T04:18:51.687Z,93.5556
2023-05-06T04:19:52.578Z,93.5789
2023-05-06T04:20:53.444Z,93.5839
2023-05-06T04:21:54.565Z,93.5738
2023-05-06T04:22:55.389Z,93.6138
2023-05-06T04:23:56.344Z,93.5531
2023-05-06T04:24:57.416Z,93.5679
2023-05-06T04:25:58.244Z,93.4696
2023-05-06T04:26:59.190Z,93.5121
2023-05-06T04:28:00.155Z,93.3885
2023-05-06T04:29:01.111Z,93.3988
2023-05-06T04:30:02.404Z,93.3142
2023-05-06T04:31:03.187Z,93.2233
2023-05-06T04:32:04.404Z,93.1193
2023-05-06T04:33:05.525Z,92.9537
2023-05-06T04:34:05.885Z,92.8503
2023-05-06T04:35:07.117Z,92.7111
2023-05-06T04:36:08.070Z,92.6219
2023-05-06T04:37:09.173Z,92.4984
2023-05-06T04:38:09.948Z,92.6021
2023-05-06T04:39:11.027Z,92.5468
2023-05-06T04:40:12.090Z,92.4061
2023-05-06T04:41:12.956Z,92.4253
2023-05-06T04:42:14.147Z,92.4398
2023-05-06T04:43:15.082Z,92.5544
2023-05-06T04:44:16.169Z,92.5926
2023-05-06T04:45:17.242Z,92.5424
2023-05-06T04:46:18.395Z,92.5773
2023-05-06T04:47:19.513Z,92.7155
2023-05-06T04:48:20.700Z,92.5956
2023-05-06T04:49:21.829Z,92.5110
2023-05-06T04:50:22.947Z,92.7148
2023-05-06T04:51:24.006Z,92.4831
2023-05-06T04:52:24.108Z,92.3324
2023-05-06T04:53:25.575Z,92.4133
2023-05-06T04:54:26.569Z,92.7011
2023-05-06T04:55:26.986Z,92.6260
2023-05-06T04:56:27.952Z,92.7586
2023-05-06T04:57:29.067Z,92.6835
2023-05-06T04:58:30.161Z,92.7817
2023-05-06T04:59:31.137Z,92.6726
2023-05-06T05:00:32.318Z,92.7049
2023-05-06T05:01:33.561Z,92.7141
2023-05-06T05:02:33.934Z,92.6038
2023-05-06T05:03:34.686Z,92.6471
2023-05-06T05:04:34.622Z,92.8436
2023-05-06T05:05:34.684Z,92.7555
2023-05-06T05:06:35.584Z,92.5947
2023-05-06T05:07:36.743Z,92.4162
2023-05-06T05:08:37.719Z,92.4263
2023-05-06T05:09:38.984Z,92.3311
2023-05-06T05:11:39.704Z,92.2765
2023-05-06T05:12:41.044Z,92.1779
2023-05-06T05:13:40.998Z,92.3793
2023-05-06T05:14:42.148Z,92.4152
2023-05-06T05:15:42.315Z,92.1928
2023-05-06T05:16:43.636Z,92.5031
2023-05-06T05:18:44.427Z,92.3596
2023-05-06T05:19:44.625Z,92.5529
2023-05-06T05:20:45.665Z,93.2661
2023-05-06T05:21:46.825Z,93.2778
2023-05-06T05:22:47.778Z,93.2164
2023-05-06T05:23:49.014Z,92.8204
2023-05-06T05:24:50.124Z,92.3214
2023-05-06T05:25:50.813Z,92.3259
2023-05-06T05:26:51.984Z,92.3152
2023-05-06T05:27:52.926Z,91.9644
2023-05-06T05:28:54.000Z,91.8408
2023-05-06T05:29:55.167Z,91.8191
2023-05-06T05:30:56.379Z,91.7968
2023-05-06T05:31:57.518Z,91.8599
2023-05-06T05:32:59.008Z,92.0685
2023-05-06T05:33:59.021Z,91.9914
2023-05-06T05:35:00.303Z,92.0781
2023-05-06T05:36:01.300Z,91.9003
2023-05-06T05:37:02.492Z,91.4741
2023-05-06T05:38:03.532Z,91.5253
2023-05-06T05:39:04.852Z,91.4730
2023-05-06T05:40:06.021Z,91.3989
2023-05-06T05:41:07.067Z,91.2302
2023-05-06T05:42:08.376Z,91.3796
2023-05-06T05:43:09.597Z,91.2940
2023-05-06T05:44:10.764Z,91.0172
2023-05-06T05:45:11.214Z,90.9586
2023-05-06T05:46:12.280Z,90.9881
2023-05-06T05:47:12.383Z,90.9513
2023-05-06T05:48:13.671Z,90.9843
2023-05-06T05:49:14.870Z,90.9479
2023-05-06T05:50:16.155Z,90.9615
2023-05-06T05:52:16.938Z,90.6836
2023-05-06T05:53:18.166Z,90.5686
2023-05-06T05:54:18.145Z,90.3555
2023-05-06T05:55:19.454Z,90.4129
2023-05-06T05:56:20.038Z,90.5113
2023-05-06T05:57:21.097Z,90.1639
2023-05-06T05:58:22.605Z,90.0863
2023-05-06T06:00:23.566Z,90.1363
2023-05-06T06:01:23.504Z,90.5436
2023-05-06T06:02:24.556Z,90.5602
2023-05-06T06:03:25.652Z,90.6120
2023-05-06T06:04:26.710Z,90.8786
2023-05-06T06:05:27.351Z,91.2862
2023-05-06T06:06:28.661Z,91.3333
2023-05-06T06:07:29.690Z,91.0968
2023-05-06T06:08:30.885Z,90.9248
2023-05-06T06:09:32.103Z,90.6942
2023-05-06T06:10:33.154Z,90.6364
2023-05-06T06:11:34.369Z,90.5932
2023-05-06T06:12:35.411Z,90.2045
2023-05-06T06:13:35.879Z,89.9086
2023-05-06T06:14:36.993Z,89.4685
2023-05-06T06:15:38.277Z,89.3794
2023-05-06T06:16:38.762Z,89.2321
2023-05-06T06:17:38.660Z,89.0117
2023-05-06T06:18:38.850Z,88.8933
2023-05-06T06:19:39.985Z,88.4892
2023-05-06T06:20:41.252Z,88.6877
2023-05-06T06:21:42.356Z,88.8364
2023-05-06T06:22:43.426Z,89.1791
2023-05-06T06:23:44.467Z,89.2159
2023-05-06T06:24:45.595Z,89.3818
2023-05-06T06:25:45.925Z,89.5078
2023-05-06T06:26:46.941Z,89.2321
2023-05-06T06:27:48.202Z,89.1465
2023-05-06T06:28:49.523Z,88.8897
2023-05-06T06:29:50.520Z,88.7750
2023-05-06T06:30:51.845Z,88.9094
2023-05-06T06:31:51.897Z,89.0955
2023-05-06T06:32:51.932Z,89.1695
2023-05-06T06:33:53.136Z,89.0233
2023-05-06T06:34:54.442Z,89.1611
2023-05-06T06:35:54.632Z,89.3494
2023-05-06T06:36:55.853Z,89.1740
2023-05-06T06:37:57.116Z,89.0005
2023-05-06T06:38:58.360Z,89.0020
2023-05-06T06:39:58.172Z,89.2912
2023-05-06T06:40:59.418Z,89.2572
2023-05-06T06:42:00.616Z,89.1023
2023-05-06T06:43:01.644Z,88.7778
2023-05-06T06:44:02.793Z,88.5657
2023-05-06T06:45:04.075Z,88.4305
2023-05-06T06:46:05.239Z,88.4360
2023-05-06T06:47:06.551Z,88.0879
2023-05-06T06:48:06.677Z,88.0599
2023-05-06T06:49:06.708Z,88.2069
2023-05-06T06:50:07.737Z,88.6337
2023-05-06T06:52:08.582Z,88.3153
2023-05-06T06:53:09.908Z,87.2873
2023-05-06T06:54:11.102Z,87.3537
2023-05-06T06:55:11.696Z,87.4207
2023-05-06T06:56:11.624Z,87.8518
2023-05-06T06:57:11.611Z,86.6404
2023-05-06T06:58:12.666Z,86.7263
2023-05-06T06:59:14.040Z,87.3165
2023-05-06T07:00:15.052Z,87.1852
2023-05-06T07:03:17.628Z,86.4500
2023-05-06T07:04:18.933Z,86.4301
2023-05-06T07:05:19.941Z,86.4145
2023-05-06T07:06:20.790Z,87.0263
2023-05-06T07:07:21.131Z,87.4333
2023-05-06T07:08:21.659Z,86.5213
2023-05-06T07:09:22.401Z,86.3965
2023-05-06T07:10:22.668Z,86.3454
2023-05-06T07:11:23.041Z,86.1749
2023-05-06T07:12:23.649Z,86.1402
2023-05-06T07:13:24.469Z,86.3989
2023-05-06T07:14:25.224Z,86.3317
2023-05-06T07:16:25.796Z,86.5054
2023-05-06T07:17:26.150Z,85.9983
2023-05-06T07:18:26.106Z,85.9300
2023-05-06T07:19:26.279Z,85.9973
2023-05-06T07:20:27.329Z,85.9022
2023-05-06T07:21:28.459Z,85.4182
2023-05-06T07:22:28.616Z,85.0991
2023-05-06T07:23:31.897Z,84.3721
2023-05-06T07:24:30.885Z,84.2348
2023-05-06T07:25:32.059Z,83.8488
2023-05-06T07:26:33.414Z,83.9163
2023-05-06T07:27:34.711Z,84.4065
2023-05-06T07:28:35.941Z,84.1036
2023-05-06T07:29:36.105Z,83.2370
2023-05-06T07:30:37.438Z,83.7468
2023-05-06T07:31:37.768Z,83.9633
2023-05-06T07:32:38.927Z,83.8996
2023-05-06T07:33:40.252Z,84.0805
2023-05-06T07:34:41.359Z,83.9839
2023-05-06T07:35:41.525Z,83.5778
2023-05-06T07:36:42.764Z,83.6577
2023-05-06T07:37:43.763Z,83.5394
2023-05-06T07:38:44.800Z,83.3328
2023-05-06T07:39:45.660Z,83.4060
2023-05-06T07:40:46.822Z,83.9181
2023-05-06T07:41:47.349Z,84.3165
2023-05-06T07:42:48.253Z,84.0190
2023-05-06T07:43:48.416Z,83.9239
2023-05-06T07:44:49.208Z,83.9747
2023-05-06T07:45:50.200Z,83.8029
2023-05-06T07:46:51.244Z,83.7074
2023-05-06T07:47:51.077Z,83.8146
2023-05-06T07:48:51.864Z,83.6115
2023-05-06T07:49:52.597Z,83.4251
2023-05-06T07:50:53.018Z,83.0310
2023-05-06T07:51:54.902Z,83.5268
2023-05-06T07:52:54.995Z,83.3469
2023-05-06T07:53:55.624Z,83.1006
2023-05-06T07:54:56.606Z,82.6736
2023-05-06T07:55:56.779Z,82.3166
2023-05-06T07:56:57.226Z,82.4163
2023-05-06T07:57:58.506Z,82.5388
2023-05-06T07:58:59.778Z,83.4000
2023-05-06T07:59:59.982Z,82.8664
2023-05-06T08:01:01.282Z,82.1984
2023-05-06T08:02:02.580Z,82.1100
2023-05-06T08:03:04.060Z,81.9280
2023-05-06T08:04:04.152Z,82.2835
2023-05-06T08:05:04.913Z,81.8819
2023-05-06T08:07:12.970Z,81.3695
2023-05-06T08:08:14.214Z,80.6373
2023-05-06T08:09:22.241Z,80.6210
2023-05-06T08:10:15.798Z,80.7824
2023-05-06T08:11:18.823Z,80.7593
2023-05-06T08:12:17.599Z,80.4227
2023-05-06T08:13:18.900Z,80.0621
2023-05-06T08:14:20.137Z,79.0799
2023-05-06T08:15:20.129Z,78.1527
2023-05-06T08:16:22.576Z,77.9130
2023-05-06T08:17:21.800Z,77.7306
2023-05-06T08:18:23.496Z,77.9438
2023-05-06T08:19:23.469Z,77.7565
2023-05-06T08:20:23.279Z,78.1381
2023-05-06T08:21:24.153Z,77.0262
2023-05-06T08:22:25.360Z,76.0779
2023-05-06T08:23:26.412Z,75.5446
2023-05-06T08:24:27.292Z,75.2775
2023-05-06T08:25:27.416Z,74.9279
2023-05-06T08:26:28.509Z,74.6798
2023-05-06T08:27:29.298Z,74.5888
2023-05-06T08:28:30.194Z,72.9511
2023-05-06T08:29:31.008Z,72.5146
2023-05-06T08:30:32.138Z,72.2171
2023-05-06T08:31:33.191Z,72.7706
2023-05-06T08:32:33.300Z,72.5376
2023-05-06T08:33:33.512Z,72.5476
2023-05-06T08:34:33.759Z,72.2260
2023-05-06T08:35:34.010Z,72.0267
2023-05-06T08:36:34.831Z,72.4537
2023-05-06T08:37:35.906Z,72.8055
2023-05-06T08:38:36.809Z,73.7056
2023-05-06T08:39:37.822Z,74.4382
2023-05-06T08:40:38.685Z,73.8563
2023-05-06T08:41:39.972Z,73.6503
2023-05-06T08:42:41.122Z,73.7877
2023-05-06T08:43:42.183Z,73.4957
2023-05-06T08:44:43.213Z,74.1059
2023-05-06T08:45:44.163Z,73.8267
2023-05-06T08:46:44.451Z,73.6601
2023-05-06T08:47:45.482Z,74.0399
2023-05-06T08:48:46.320Z,73.8192
2023-05-06T08:49:47.441Z,74.3478
2023-05-06T08:50:48.468Z,73.9295
2023-05-06T08:51:49.712Z,73.3360
2023-05-06T08:52:51.036Z,73.0153
2023-05-06T08:53:52.188Z,72.3387
2023-05-06T08:54:52.295Z,72.2921
2023-05-06T08:55:52.485Z,71.7404
2023-05-06T08:56:53.772Z,71.3726
2023-05-06T08:57:54.276Z,70.7762
2023-05-06T08:58:55.369Z,69.2877
2023-05-06T08:59:56.647Z,68.5832
2023-05-06T09:00:57.487Z,67.4016
2023-05-06T09:01:57.719Z,67.2028
2023-05-06T09:02:58.853Z,69.0101
2023-05-06T09:03:59.617Z,69.7849
2023-05-06T09:05:00.847Z,70.4813
2023-05-06T09:06:00.854Z,70.5801
2023-05-06T09:07:01.990Z,69.6816
2023-05-06T09:08:03.266Z,68.9397
2023-05-06T09:09:04.508Z,68.7523
2023-05-06T09:10:05.347Z,68.7831
2023-05-06T09:11:06.380Z,69.6338
2023-05-06T09:12:07.610Z,69.2380
2023-05-06T09:13:08.684Z,68.7949
2023-05-06T09:14:09.840Z,68.9182
2023-05-06T09:15:10.741Z,68.0257
2023-05-06T09:16:11.688Z,67.8820
2023-05-06T09:17:12.849Z,67.8491
2023-05-06T09:18:13.066Z,67.0422
2023-05-06T09:19:14.017Z,66.9157
2023-05-06T09:20:14.817Z,66.6730
2023-05-06T09:21:15.456Z,66.5550
2023-05-06T09:22:15.609Z,67.5116
2023-05-06T09:23:16.603Z,67.4206
2023-05-06T09:24:17.647Z,67.2522
2023-05-06T09:25:18.603Z,69.1239
2023-05-06T09:26:19.575Z,69.1030
2023-05-06T09:27:20.108Z,70.2389
2023-05-06T09:28:21.395Z,71.7202
2023-05-06T09:29:22.406Z,70.9593
2023-05-06T09:30:23.625Z,70.2901
2023-05-06T09:31:24.368Z,70.4618
2023-05-06T09:32:25.377Z,71.4648
2023-05-06T09:33:25.905Z,71.2907
2023-05-06T09:34:26.986Z,71.5705
2023-05-06T09:35:27.037Z,71.0200
2023-05-06T09:36:28.381Z,70.8752
2023-05-06T09:37:29.399Z,71.8131
2023-05-06T09:38:30.358Z,71.2016
2023-05-06T09:39:31.351Z,71.8837
2023-05-06T09:40:32.268Z,71.2717
2023-05-06T09:41:33.265Z,71.3044
2023-05-06T09:42:34.190Z,70.6630
2023-05-06T09:43:35.206Z,70.6611
2023-05-06T09:44:36.538Z,70.1325
2023-05-06T09:45:37.336Z,70.5656
2023-05-06T09:46:38.751Z,69.8742
2023-05-06T09:47:39.079Z,69.5620
2023-05-06T09:48:39.096Z,69.6990
2023-05-06T09:49:40.064Z,69.6188
2023-05-06T09:50:40.975Z,69.2533
2023-05-06T09:51:41.938Z,68.8673
2023-05-06T09:52:43.052Z,69.5153
2023-05-06T09:53:44.107Z,69.5129
2023-05-06T09:54:45.021Z,67.9906
2023-05-06T09:55:45.131Z,67.3601
2023-05-06T09:56:46.188Z,66.8185
2023-05-06T09:57:46.468Z,66.3797
2023-05-06T09:58:47.529Z,63.3720
2023-05-06T09:59:48.656Z,62.2216
2023-05-06T10:00:48.836Z,62.9196
2023-05-06T10:01:49.247Z,62.5988
2023-05-06T10:02:49.448Z,62.9715
2023-05-06T10:03:49.617Z,61.9398
2023-05-06T10:04:50.229Z,62.0661
2023-05-06T10:05:50.870Z,62.8878
2023-05-06T10:06:51.821Z,64.7756
2023-05-06T10:07:52.869Z,64.6963
2023-05-06T10:08:53.884Z,64.2184
2023-05-06T10:09:54.981Z,63.9162
2023-05-06T10:10:56.014Z,64.6338
2023-05-06T10:11:57.044Z,65.6691
2023-05-06T10:12:57.181Z,66.5366
2023-05-06T10:13:58.294Z,67.0150
2023-05-06T10:14:58.440Z,65.9581
2023-05-06T10:15:59.605Z,65.5331
2023-05-06T10:16:59.939Z,64.3512
2023-05-06T10:18:00.253Z,64.3329
2023-05-06T10:19:01.221Z,66.1735
2023-05-06T10:20:01.881Z,64.3272
2023-05-06T10:21:02.818Z,63.3253
2023-05-06T10:22:05.587Z,63.8272
2023-05-06T10:23:04.580Z,64.2103
2023-05-06T10:24:05.403Z,63.8970
2023-05-06T10:25:06.567Z,64.2943
2023-05-06T10:26:07.719Z,63.9457
2023-05-06T10:27:08.766Z,63.7830
2023-05-06T10:28:23.170Z,64.4906
2023-05-06T10:29:13.412Z,63.2650
2023-05-06T10:30:14.560Z,62.6697
2023-05-06T10:31:15.691Z,63.2333
2023-05-06T10:32:15.608Z,61.9012
2023-05-06T10:33:16.948Z,61.2490
2023-05-06T10:34:18.025Z,61.6364
2023-05-06T10:36:18.865Z,60.0744
2023-05-06T10:37:19.935Z,59.7045
2023-05-06T10:38:20.875Z,60.5646
2023-05-06T10:39:21.931Z,60.0466
2023-05-06T10:40:23.098Z,60.3363
2023-05-06T10:41:24.065Z,59.5071
2023-05-06T10:42:25.453Z,58.7611
2023-05-06T10:43:26.495Z,57.6994
2023-05-06T10:44:27.619Z,56.2742
2023-05-06T10:45:28.769Z,57.0462
2023-05-06T10:46:29.801Z,56.8844
2023-05-06T10:47:30.900Z,57.1082
2023-05-06T10:48:32.009Z,57.0228
2023-05-06T10:49:33.340Z,56.2410
2023-05-06T10:50:34.482Z,56.0941
2023-05-06T10:51:35.397Z,56.0861
2023-05-06T10:52:36.652Z,56.6599
2023-05-06T10:53:37.546Z,57.6727
2023-05-06T10:56:39.279Z,54.1805
2023-05-06T10:57:40.292Z,55.1215
2023-05-06T10:58:41.474Z,54.3008
2023-05-06T10:59:42.599Z,52.9760
2023-05-06T11:00:43.432Z,52.3333
2023-05-06T11:01:43.711Z,53.1080
2023-05-06T11:02:49.398Z,53.4087
2023-05-06T11:03:49.983Z,54.0039
2023-05-06T11:04:51.004Z,54.5522
2023-05-06T11:05:52.139Z,53.6039
2023-05-06T11:06:53.195Z,52.3857
2023-05-06T11:07:54.322Z,51.1191
2023-05-06T11:08:55.369Z,49.7476
2023-05-06T11:09:56.389Z,50.5194
2023-05-06T11:10:57.404Z,50.0259
2023-05-06T11:11:58.333Z,51.0001
2023-05-06T11:12:58.557Z,50.2353
2023-05-06T11:13:59.728Z,50.2324
2023-05-06T11:15:00.906Z,50.9134
2023-05-06T11:16:02.105Z,50.8223
2023-05-06T11:17:03.630Z,51.2574
2023-05-06T11:18:04.755Z,50.9974
2023-05-06T11:19:04.856Z,50.3493
2023-05-06T11:21:05.230Z,49.7169
2023-05-06T11:22:06.246Z,51.4240
2023-05-06T11:23:06.383Z,52.5927
2023-05-06T11:24:07.293Z,51.8339
2023-05-06T11:25:08.298Z,50.0993
2023-05-06T11:26:09.329Z,49.9922
2023-05-06T11:27:10.671Z,52.2915
2023-05-06T11:28:10.900Z,51.8632
2023-05-06T11:29:11.508Z,52.1341
2023-05-06T11:30:12.785Z,52.3699
2023-05-06T11:31:12.661Z,52.1565
2023-05-06T11:32:12.865Z,53.9986
2023-05-06T11:33:14.031Z,53.4940
2023-05-06T11:34:15.291Z,53.7521
2023-05-06T11:35:16.215Z,55.4183
2023-05-06T11:36:17.390Z,54.8856
2023-05-06T11:37:18.519Z,55.1968
2023-05-06T11:38:18.584Z,53.5824
2023-05-06T11:39:19.633Z,55.1241
2023-05-06T11:40:19.875Z,55.4455
2023-05-06T11:41:20.852Z,54.3543
2023-05-06T11:42:21.769Z,54.8669
2023-05-06T11:43:22.830Z,53.3436
2023-05-06T11:44:23.891Z,53.0290
2023-05-06T11:46:24.595Z,52.9773
2023-05-06T11:47:24.736Z,51.8318
2023-05-06T11:48:24.750Z,53.0902
2023-05-06T11:49:26.063Z,52.3194
2023-05-06T11:50:26.245Z,51.7328
2023-05-06T11:51:27.415Z,52.2216
2023-05-06T11:52:27.503Z,52.6682
2023-05-06T11:53:27.840Z,52.5832
2023-05-06T11:55:28.991Z,55.3800
2023-05-06T11:56:29.475Z,55.5873
2023-05-06T11:57:30.635Z,55.8531
2023-05-06T11:58:30.773Z,54.4583
2023-05-06T11:59:31.432Z,53.2269
2023-05-06T12:00:31.715Z,53.0385
2023-05-06T12:01:31.992Z,53.4183
2023-05-06T12:02:32.763Z,52.4940
2023-05-06T12:03:34.738Z,52.0193
2023-05-06T12:04:34.952Z,52.2193
2023-05-06T12:05:36.414Z,52.8778
2023-05-06T12:07:36.017Z,50.4037
2023-05-06T12:08:36.036Z,49.3084
2023-05-06T12:09:36.117Z,50.2163
2023-05-06T12:10:37.137Z,50.6455
2023-05-06T12:11:37.218Z,49.6080
2023-05-06T12:12:37.963Z,48.6888
2023-05-06T12:13:38.953Z,49.1874
2023-05-06T12:14:39.245Z,46.6803
2023-05-06T12:15:39.832Z,45.1781
2023-05-06T12:16:40.114Z,46.2385
2023-05-06T12:18:44.137Z,47.5659
2023-05-06T12:19:45.399Z,45.9543
2023-05-06T12:20:45.851Z,46.1616
2023-05-06T12:21:45.909Z,45.6152
2023-05-06T12:22:46.321Z,43.6582
2023-05-06T12:23:48.535Z,43.3777
2023-05-06T12:25:36.641Z,42.9659
2023-05-06T12:26:37.770Z,42.7988
2023-05-06T12:27:38.135Z,43.2936
2023-05-06T12:28:38.420Z,42.4184
2023-05-06T12:29:39.392Z,43.4770
2023-05-06T12:30:40.721Z,43.9498
2023-05-06T12:31:41.998Z,42.3864
2023-05-06T12:32:42.096Z,42.7792
2023-05-06T12:33:43.429Z,43.9380